Weather at Halifax / Stanfield International Airport

Public forecast

Using degrees Celsius for public forecast. Weather courtesy of forecast.io.

Current aviation weather report (METAR) for Halifax / Stanfield International Airport

Report is more than 6 hours old.

2022/11/14 15:00 (retrieved 2 years ago)

CYHZ 141500Z 26019G29KT 15SM BKN022 05/01 A2975 RMK SC7 SLP082

Aviation forecast (TAF) for Halifax / Stanfield International Airport

Forecast is more than 12 hours old.

2023/02/22 18:42 (retrieved 1 year ago)

TAF TAF CYHZ 221740Z 2218/2318 30012G22KT P6SM SCT040 TEMPO 2218/2222 BKN040 FM222200 32015KT P6SM FEW040 FM231100 01012KT P6SM FEW020 OVC080 FM231500 01015KT 6SM -SN OVC060 RMK NXT FCST BY 222100Z